createdAt,value
2019-04-21T00:02:24.212Z,102460.76
2019-04-21T00:04:58.000Z,102462.83
2019-04-21T00:07:37.835Z,102460.03
2019-04-21T00:10:13.652Z,102462.66
2019-04-21T00:12:40.843Z,102461.63
2019-04-21T00:15:11.222Z,102465.14
2019-04-21T00:17:31.677Z,102465.67
2019-04-21T00:20:15.737Z,102465.31
2019-04-21T00:22:47.731Z,102451.00
2019-04-21T00:25:25.321Z,102446.42
2019-04-21T00:28:02.935Z,102441.09
2019-04-21T00:30:34.098Z,102444.97
2019-04-21T00:32:54.134Z,102445.41
2019-04-21T00:35:19.575Z,102448.99
2019-04-21T00:38:09.710Z,102441.42
2019-04-21T00:40:43.235Z,102435.80
2019-04-21T00:43:07.811Z,102435.70
2019-04-21T00:45:37.625Z,102433.04
2019-04-21T00:48:18.004Z,102431.59
2019-04-21T00:51:14.211Z,102431.34
2019-04-21T00:53:35.774Z,102427.84
2019-04-21T00:56:03.428Z,102423.26
2019-04-21T00:58:33.176Z,102423.37
2019-04-21T01:01:03.209Z,102421.15
2019-04-21T01:03:43.640Z,102423.28
2019-04-21T01:06:08.226Z,102419.92
2019-04-21T01:08:35.983Z,102418.73
2019-04-21T01:11:10.059Z,102419.20
2019-04-21T01:13:45.436Z,102418.18
2019-04-21T01:16:18.757Z,102417.19
2019-04-21T01:18:45.946Z,102414.99
2019-04-21T01:20:54.469Z,102415.38
2019-04-21T01:23:25.475Z,102420.02
2019-04-21T01:26:08.046Z,102410.92
2019-04-21T01:28:40.111Z,102419.83
2019-04-21T01:31:17.516Z,102410.55
2019-04-21T01:33:53.087Z,102412.57
2019-04-21T01:36:17.739Z,102411.48
2019-04-21T01:39:00.958Z,102415.70
2019-04-21T01:41:35.089Z,102410.62
2019-04-21T01:43:57.216Z,102415.59
2019-04-21T01:46:29.640Z,102404.98
2019-04-21T01:48:56.983Z,102407.44
2019-04-21T01:51:38.486Z,102405.10
2019-04-21T01:54:18.509Z,102404.25
2019-04-21T01:56:47.890Z,102403.77
2019-04-21T01:59:03.758Z,102403.52
2019-04-21T02:01:46.030Z,102409.31
2019-04-21T02:04:26.503Z,102403.27
2019-04-21T02:06:54.651Z,102399.34
2019-04-21T02:09:23.253Z,102402.79
2019-04-21T02:12:00.067Z,102397.74
2019-04-21T02:14:32.907Z,102391.09
2019-04-21T02:17:00.531Z,102382.84
2019-04-21T02:19:23.215Z,102386.53
2019-04-21T02:21:56.695Z,102385.05
2019-04-21T02:24:42.743Z,102377.05
2019-04-21T02:27:08.644Z,102378.39
2019-04-21T02:29:41.564Z,102378.65
2019-04-21T02:32:18.014Z,102379.73
2019-04-21T02:37:38.478Z,102374.22
2019-04-21T02:40:00.361Z,102372.73
2019-04-21T02:42:27.848Z,102375.91
2019-04-21T02:47:38.756Z,102366.83
2019-04-21T02:52:37.304Z,102358.58
2019-04-21T02:55:18.000Z,102362.02
2019-04-21T02:57:47.850Z,102365.09
2019-04-21T03:02:54.501Z,102349.69
2019-04-21T03:05:39.705Z,102350.70
2019-04-21T03:08:03.498Z,102340.84
2019-04-21T03:10:39.228Z,102337.40
2019-04-21T03:13:08.931Z,102333.83
2019-04-21T03:15:39.556Z,102324.47
2019-04-21T03:18:10.796Z,102326.50
2019-04-21T03:20:44.468Z,102319.06
2019-04-21T03:26:00.799Z,102306.87
2019-04-21T03:28:14.076Z,102306.50
2019-04-21T03:34:05.636Z,102309.03
2019-04-21T03:36:13.073Z,102304.07
2019-04-21T03:38:27.003Z,102298.94
2019-04-21T03:40:47.349Z,102301.38
2019-04-21T03:46:01.188Z,102294.75
2019-04-21T03:48:35.747Z,102296.82
2019-04-21T03:50:58.999Z,102295.47
2019-04-21T03:53:31.307Z,102297.77
2019-04-21T03:56:12.423Z,102296.28
2019-04-21T04:04:07.918Z,102300.01
2019-04-21T04:07:05.730Z,102307.05
2019-04-21T04:09:19.177Z,102304.14
2019-04-21T04:11:55.178Z,102303.52
2019-04-21T04:16:58.523Z,102302.05
2019-04-21T04:19:30.520Z,102295.20
2019-04-21T04:21:56.381Z,102295.92
2019-04-21T04:25:01.984Z,102287.63
2019-04-21T04:29:24.250Z,102291.41
2019-04-21T04:31:47.500Z,102288.37
2019-04-21T04:34:27.616Z,102292.56
2019-04-21T04:37:05.394Z,102295.72
2019-04-21T04:42:35.514Z,102291.70
2019-04-21T04:45:01.620Z,102295.03
2019-04-21T04:52:31.735Z,102292.28
2019-04-21T04:55:03.768Z,102291.80
2019-04-21T04:57:21.836Z,102290.30
2019-04-21T05:02:37.718Z,102289.94
2019-04-21T05:05:07.339Z,102287.43
2019-04-21T05:10:11.702Z,102287.70
2019-04-21T05:17:43.505Z,102290.53
2019-04-21T05:22:43.715Z,102287.69
2019-04-21T05:25:05.193Z,102292.00
2019-04-21T05:27:52.476Z,102288.16
2019-04-21T05:30:26.634Z,102295.44
2019-04-21T05:33:03.932Z,102290.72
2019-04-21T05:35:46.198Z,102290.87
2019-04-21T05:38:22.325Z,102291.00
2019-04-21T05:40:52.739Z,102289.24
2019-04-21T05:43:35.257Z,102286.50
2019-04-21T05:46:18.427Z,102283.44
2019-04-21T05:48:39.426Z,102288.43
2019-04-21T05:51:10.603Z,102287.79
2019-04-21T05:53:42.597Z,102281.20
2019-04-21T05:56:16.211Z,102285.11
2019-04-21T05:58:53.676Z,102288.14
2019-04-21T06:01:30.860Z,102282.82
2019-04-21T06:04:00.230Z,102285.56
2019-04-21T06:06:37.521Z,102284.44
2019-04-21T06:09:11.107Z,102276.69
2019-04-21T06:11:35.955Z,102275.29
2019-04-21T06:14:08.263Z,102268.15
2019-04-21T06:16:44.717Z,102260.48
2019-04-21T06:19:14.513Z,102257.30
2019-04-21T06:21:38.543Z,102254.35
2019-04-21T06:24:15.685Z,102253.79
2019-04-21T06:29:15.214Z,102253.73
2019-04-21T06:32:12.745Z,102252.20
2019-04-21T06:34:49.635Z,102252.43
2019-04-21T06:37:05.825Z,102248.20
2019-04-21T06:39:31.715Z,102242.55
2019-04-21T06:42:05.734Z,102240.90
2019-04-21T06:44:38.817Z,102251.55
2019-04-21T06:47:16.303Z,102236.63
2019-04-21T06:49:41.232Z,102234.71
2019-04-21T06:52:29.888Z,102224.05
2019-04-21T06:54:47.069Z,102230.40
2019-04-21T06:57:16.502Z,102226.76
2019-04-21T06:59:43.367Z,102218.03
2019-04-21T07:02:36.256Z,102226.94
2019-04-21T07:04:55.044Z,102220.46
2019-04-21T07:07:26.105Z,102222.75
2019-04-21T07:09:58.483Z,102219.96
2019-04-21T07:12:22.067Z,102214.39
2019-04-21T07:14:58.932Z,102220.27
2019-04-21T07:17:28.160Z,102208.36
2019-04-21T07:20:10.034Z,102211.12
2019-04-21T07:22:37.306Z,102208.73
2019-04-21T07:25:11.648Z,102217.00
2019-04-21T07:27:39.707Z,102209.34
2019-04-21T07:30:17.696Z,102207.81
2019-04-21T07:32:45.631Z,102206.30
2019-04-21T07:35:19.566Z,102205.78
2019-04-21T07:37:41.510Z,102205.59
2019-04-21T07:40:09.414Z,102202.52
2019-04-21T07:42:42.943Z,102196.14
2019-04-21T07:45:13.010Z,102194.20
2019-04-21T07:48:14.340Z,102198.82
2019-04-21T07:50:45.468Z,102191.25
2019-04-21T07:53:22.583Z,102190.50
2019-04-21T07:55:32.632Z,102187.67
2019-04-21T07:58:33.441Z,102191.48
2019-04-21T08:00:51.389Z,102186.05
2019-04-21T08:03:30.359Z,102189.64
2019-04-21T08:05:58.614Z,102188.69
2019-04-21T08:08:26.332Z,102183.59
2019-04-21T08:10:58.056Z,102183.59
2019-04-21T08:13:39.219Z,102179.75
2019-04-21T08:16:04.707Z,102186.08
2019-04-21T08:18:39.983Z,102177.40
2019-04-21T08:21:08.595Z,102174.28
2019-04-21T08:23:37.008Z,102169.03
2019-04-21T08:26:07.964Z,102167.41
2019-04-21T08:28:49.372Z,102181.06
2019-04-21T08:31:14.601Z,102174.11
2019-04-21T08:33:47.012Z,102175.14
2019-04-21T08:36:28.419Z,102172.91
2019-04-21T08:38:48.040Z,102167.86
2019-04-21T08:41:18.488Z,102165.87
2019-04-21T08:44:04.928Z,102167.34
2019-04-21T08:46:23.969Z,102168.95
2019-04-21T08:48:55.350Z,102160.67
2019-04-21T08:54:16.523Z,102156.55
2019-04-21T08:56:49.568Z,102152.16
2019-04-21T08:59:38.364Z,102148.44
2019-04-21T09:02:08.933Z,102152.17
2019-04-21T09:04:34.121Z,102146.74
2019-04-21T09:07:12.897Z,102143.03
2019-04-21T09:09:44.461Z,102143.36
2019-04-21T09:12:12.278Z,102146.61
2019-04-21T09:14:44.764Z,102137.84
2019-04-21T09:17:12.108Z,102127.34
2019-04-21T09:20:07.999Z,102126.72
2019-04-21T09:22:19.574Z,102128.39
2019-04-21T09:24:53.174Z,102119.80
2019-04-21T09:27:20.757Z,102118.78
2019-04-21T09:29:39.409Z,102117.37
2019-04-21T09:32:13.580Z,102119.55
2019-04-21T09:34:43.354Z,102109.67
2019-04-21T09:37:18.980Z,102101.66
2019-04-21T09:39:46.450Z,102093.64
2019-04-21T09:42:14.399Z,102092.70
2019-04-21T09:44:47.734Z,102090.25
2019-04-21T09:47:21.289Z,102089.80
2019-04-21T09:49:47.735Z,102084.62
2019-04-21T09:52:21.018Z,102080.88
2019-04-21T09:54:58.592Z,102082.22
2019-04-21T09:57:32.761Z,102070.64
2019-04-21T10:00:03.640Z,102072.09
2019-04-21T10:02:34.143Z,102072.06
2019-04-21T10:04:54.987Z,102066.84
2019-04-21T10:07:31.854Z,102062.69
2019-04-21T10:09:58.130Z,102063.11
2019-04-21T10:12:28.722Z,102057.77
2019-04-21T10:14:59.442Z,102062.47
2019-04-21T10:17:33.050Z,102053.63
2019-04-21T10:20:03.511Z,102049.36
2019-04-21T10:22:33.212Z,102039.73
2019-04-21T10:25:03.091Z,102035.75
2019-04-21T10:27:32.763Z,102042.95
2019-04-21T10:30:03.632Z,102046.94
2019-04-21T10:32:34.466Z,102037.10
2019-04-21T10:35:07.503Z,102027.70
2019-04-21T10:37:47.363Z,102024.10
2019-04-21T10:40:11.759Z,102021.95
2019-04-21T10:42:42.486Z,102008.72
2019-04-21T10:45:14.794Z,102011.20
2019-04-21T10:47:45.044Z,102000.51
2019-04-21T10:50:16.307Z,102000.45
2019-04-21T10:53:00.714Z,102001.30
2019-04-21T10:55:48.556Z,101999.45
2019-04-21T10:58:16.203Z,101987.59
2019-04-21T11:00:48.455Z,101978.92
2019-04-21T11:03:26.702Z,101977.28
2019-04-21T11:05:58.893Z,101976.73
2019-04-21T11:08:35.414Z,101972.94
2019-04-21T11:11:01.634Z,101969.23
2019-04-21T11:13:37.327Z,101970.22
2019-04-21T11:16:07.123Z,101972.58
2019-04-21T11:18:37.819Z,101975.06
2019-04-21T11:21:09.218Z,101962.84
2019-04-21T11:23:40.338Z,101957.27
2019-04-21T11:26:11.882Z,101961.22
2019-04-21T11:28:43.267Z,101950.42
2019-04-21T11:31:13.339Z,101943.66
2019-04-21T11:33:45.285Z,101943.19
2019-04-21T11:36:15.717Z,101938.30
2019-04-21T11:39:19.324Z,101945.89
2019-04-21T11:41:35.963Z,101932.59
2019-04-21T11:44:05.766Z,101935.89
2019-04-21T11:46:36.288Z,101935.09
2019-04-21T11:49:10.384Z,101931.35
2019-04-21T11:51:40.757Z,101925.40
2019-04-21T11:54:10.923Z,101926.71
2019-04-21T11:56:41.080Z,101928.02
2019-04-21T11:59:11.980Z,101922.03
2019-04-21T12:01:42.052Z,101913.94
2019-04-21T12:04:13.963Z,101921.03
2019-04-21T12:06:47.244Z,101907.85
2019-04-21T12:09:15.089Z,101904.57
2019-04-21T12:11:45.321Z,101893.41
2019-04-21T12:14:16.314Z,101896.45
2019-04-21T12:16:46.779Z,101895.61
2019-04-21T12:19:20.769Z,101891.76
2019-04-21T12:22:04.246Z,101894.48
2019-04-21T12:24:22.580Z,101881.99
2019-04-21T12:26:52.264Z,101877.41
2019-04-21T12:29:22.789Z,101880.20
2019-04-21T12:32:10.201Z,101873.84
2019-04-21T12:34:41.726Z,101867.87
2019-04-21T12:37:12.922Z,101859.73
2019-04-21T12:39:43.040Z,101864.14
2019-04-21T12:42:14.453Z,101851.73
2019-04-21T12:44:45.417Z,101851.91
2019-04-21T12:47:16.252Z,101848.84
2019-04-21T12:49:47.805Z,101842.25
2019-04-21T12:52:17.759Z,101844.23
2019-04-21T12:54:48.038Z,101841.28
2019-04-21T12:57:19.146Z,101836.23
2019-04-21T12:59:50.835Z,101826.55
2019-04-21T13:02:21.960Z,101823.09
2019-04-21T13:04:53.005Z,101819.73
2019-04-21T13:07:23.554Z,101819.67
2019-04-21T13:09:55.158Z,101809.04
2019-04-21T13:12:44.038Z,101804.88
2019-04-21T13:15:15.685Z,101802.06
2019-04-21T13:17:47.228Z,101797.34
2019-04-21T13:20:19.132Z,101799.59
2019-04-21T13:22:50.267Z,101785.98
2019-04-21T13:25:20.204Z,101777.21
2019-04-21T13:27:49.873Z,101780.37
2019-04-21T13:30:20.223Z,101776.47
2019-04-21T13:32:51.363Z,101771.35
2019-04-21T13:35:21.323Z,101763.55
2019-04-21T13:37:52.326Z,101765.58
2019-04-21T13:40:39.898Z,101763.64
2019-04-21T13:42:58.461Z,101761.20
2019-04-21T13:45:27.746Z,101755.63
2019-04-21T13:47:58.665Z,101754.23
2019-04-21T13:50:31.144Z,101752.55
2019-04-21T13:53:00.875Z,101752.13
2019-04-21T13:55:31.774Z,101745.17
2019-04-21T13:58:02.073Z,101744.23
2019-04-21T14:00:33.503Z,101742.49
2019-04-21T14:03:04.669Z,101742.20
2019-04-21T14:05:36.009Z,101735.88
2019-04-21T14:08:07.384Z,101733.26
2019-04-21T14:10:37.921Z,101719.48
2019-04-21T14:13:08.637Z,101719.08
2019-04-21T14:15:39.977Z,101721.45
2019-04-21T14:18:13.015Z,101711.92
2019-04-21T14:20:43.025Z,101711.00
2019-04-21T14:23:21.082Z,101708.13
2019-04-21T14:25:44.148Z,101703.75
2019-04-21T14:28:15.693Z,101702.89
2019-04-21T14:30:46.182Z,101701.77
2019-04-21T14:33:16.135Z,101698.47
2019-04-21T14:35:47.118Z,101701.03
2019-04-21T14:38:18.526Z,101694.64
2019-04-21T14:40:48.245Z,101701.34
2019-04-21T14:43:18.498Z,101701.22
2019-04-21T14:45:52.921Z,101690.84
2019-04-21T14:48:41.080Z,101692.27
2019-04-21T14:51:22.749Z,101683.45
2019-04-21T14:53:56.300Z,101684.95
2019-04-21T14:56:27.111Z,101685.25
2019-04-21T14:58:59.021Z,101677.61
2019-04-21T15:01:28.336Z,101675.06
2019-04-21T15:03:59.782Z,101674.63
2019-04-21T15:06:29.676Z,101673.23
2019-04-21T15:08:59.300Z,101668.88
2019-04-21T15:11:29.872Z,101674.00
2019-04-21T15:13:59.851Z,101676.92
2019-04-21T15:16:29.454Z,101665.29
2019-04-21T15:18:59.982Z,101663.34
2019-04-21T15:21:29.687Z,101657.98
2019-04-21T15:24:00.396Z,101652.03
2019-04-21T15:26:30.447Z,101647.70
2019-04-21T15:29:00.299Z,101648.84
2019-04-21T15:31:34.721Z,101644.61
2019-04-21T15:34:01.371Z,101646.45
2019-04-21T15:36:33.453Z,101642.17
2019-04-21T15:39:03.611Z,101632.59
2019-04-21T15:41:34.438Z,101628.08
2019-04-21T15:44:07.852Z,101627.53
2019-04-21T15:46:37.724Z,101621.79
2019-04-21T15:49:09.202Z,101628.95
2019-04-21T15:51:40.007Z,101621.98
2019-04-21T15:54:10.803Z,101624.06
2019-04-21T15:56:44.869Z,101613.40
2019-04-21T15:59:33.157Z,101607.13
2019-04-21T16:02:08.340Z,101606.70
2019-04-21T16:04:38.928Z,101606.71
2019-04-21T16:07:08.913Z,101607.68
2019-04-21T16:09:39.856Z,101605.14
2019-04-21T16:12:09.887Z,101601.41
2019-04-21T16:14:40.785Z,101595.09
2019-04-21T16:17:11.686Z,101598.47
2019-04-21T16:19:57.367Z,101594.41
2019-04-21T16:22:30.629Z,101596.53
2019-04-21T16:25:00.951Z,101592.23
2019-04-21T16:27:30.753Z,101583.50
2019-04-21T16:30:01.980Z,101591.34
2019-04-21T16:32:32.239Z,101585.03
2019-04-21T16:35:07.166Z,101592.53
2019-04-21T16:37:33.599Z,101573.82
2019-04-21T16:40:03.508Z,101573.48
2019-04-21T16:42:34.169Z,101579.66
2019-04-21T16:45:07.508Z,101581.52
2019-04-21T16:47:37.986Z,101575.33
2019-04-21T16:50:11.711Z,101578.80
2019-04-21T16:52:45.846Z,101572.34
2019-04-21T16:55:24.635Z,101571.85
2019-04-21T16:58:04.464Z,101575.48
2019-04-21T17:00:36.370Z,101570.65
2019-04-21T17:03:00.687Z,101570.34
2019-04-21T17:05:32.129Z,101574.64
2019-04-21T17:08:03.968Z,101569.94
2019-04-21T17:10:34.957Z,101566.56
2019-04-21T17:13:06.124Z,101567.34
2019-04-21T17:15:58.275Z,101563.08
2019-04-21T17:18:23.163Z,101564.94
2019-04-21T17:20:46.239Z,101559.94
2019-04-21T17:23:13.474Z,101558.11
2019-04-21T17:25:43.542Z,101561.48
2019-04-21T17:28:13.691Z,101561.95
2019-04-21T17:30:44.350Z,101555.39
2019-04-21T17:33:16.043Z,101557.86
2019-04-21T17:35:46.827Z,101559.23
2019-04-21T17:38:18.415Z,101556.10
2019-04-21T17:40:49.451Z,101563.14
2019-04-21T17:43:21.795Z,101561.07
2019-04-21T17:45:53.120Z,101561.07
2019-04-21T17:48:23.343Z,101560.30
2019-04-21T17:51:01.299Z,101556.16
2019-04-21T17:53:42.952Z,101553.84
2019-04-21T17:56:29.616Z,101560.91
2019-04-21T17:59:08.659Z,101563.20
2019-04-21T18:01:40.836Z,101557.22
2019-04-21T18:04:10.621Z,101563.20
2019-04-21T18:06:49.098Z,101558.95
2019-04-21T18:09:28.707Z,101560.56
2019-04-21T18:11:59.449Z,101561.63
2019-04-21T18:14:11.425Z,101564.63
2019-04-21T18:16:44.809Z,101562.59
2019-04-21T18:19:12.997Z,101568.41
2019-04-21T18:22:04.824Z,101563.19
2019-04-21T18:24:42.253Z,101567.88
2019-04-21T18:27:09.184Z,101563.56
2019-04-21T18:29:36.988Z,101567.84
2019-04-21T18:32:08.333Z,101567.70
2019-04-21T18:34:52.364Z,101564.41
2019-04-21T18:37:26.136Z,101562.39
2019-04-21T18:40:03.784Z,101572.40
2019-04-21T18:42:42.178Z,101565.59
2019-04-21T18:45:48.080Z,101564.50
2019-04-21T18:48:19.418Z,101569.34
2019-04-21T18:50:50.945Z,101567.19
2019-04-21T18:53:34.086Z,101572.08
2019-04-21T18:55:50.489Z,101575.89
2019-04-21T18:58:18.135Z,101579.98
2019-04-21T19:00:48.768Z,101583.37
2019-04-21T19:03:27.034Z,101589.14
2019-04-21T19:05:56.647Z,101586.53
2019-04-21T19:08:40.578Z,101597.01
2019-04-21T19:11:13.657Z,101593.98
2019-04-21T19:14:17.512Z,101597.81
2019-04-21T19:16:41.523Z,101596.91
2019-04-21T19:19:23.568Z,101598.52
2019-04-21T19:21:29.923Z,101598.63
2019-04-21T19:24:18.353Z,101600.16
2019-04-21T19:26:46.800Z,101598.96
2019-04-21T19:29:20.018Z,101600.25
2019-04-21T19:34:07.716Z,101600.20
2019-04-21T19:36:32.536Z,101598.02
2019-04-21T19:39:10.737Z,101601.26
2019-04-21T19:41:45.814Z,101593.27
2019-04-21T19:44:21.707Z,101597.22
2019-04-21T19:46:56.702Z,101596.52
2019-04-21T19:49:35.091Z,101599.47
2019-04-21T19:51:51.104Z,101588.36
2019-04-21T19:54:21.141Z,101588.18
2019-04-21T19:56:43.038Z,101593.16
2019-04-21T19:59:23.544Z,101583.29
2019-04-21T20:01:47.672Z,101593.94
2019-04-21T20:04:16.749Z,101588.91
2019-04-21T20:06:58.412Z,101588.52
2019-04-21T20:09:38.000Z,101587.87
2019-04-21T20:12:05.109Z,101589.77
2019-04-21T20:17:08.299Z,101587.86
2019-04-21T20:19:26.549Z,101588.52
2019-04-21T20:21:56.961Z,101581.39
2019-04-21T20:24:30.285Z,101590.08
2019-04-21T20:27:06.907Z,101588.25
2019-04-21T20:29:48.828Z,101586.73
2019-04-21T20:32:26.406Z,101586.02
2019-04-21T20:34:56.619Z,101589.43
2019-04-21T20:37:21.278Z,101589.80
2019-04-21T20:39:46.288Z,101578.85
2019-04-21T20:42:22.600Z,101579.42
2019-04-21T20:45:17.322Z,101583.52
2019-04-21T20:47:23.179Z,101578.47
2019-04-21T20:49:56.821Z,101576.66
2019-04-21T20:52:35.729Z,101575.89
2019-04-21T20:54:59.930Z,101575.92
2019-04-21T20:57:30.164Z,101576.42
2019-04-21T21:00:05.835Z,101573.55
2019-04-21T21:02:49.342Z,101573.78
2019-04-21T21:05:04.656Z,101570.01
2019-04-21T21:07:45.820Z,101564.39
2019-04-21T21:10:16.631Z,101571.23
2019-04-21T21:12:51.342Z,101570.44
2019-04-21T21:15:10.083Z,101569.73
2019-04-21T21:18:04.327Z,101564.72
2019-04-21T21:20:29.478Z,101567.88
2019-04-21T21:22:50.860Z,101576.38
2019-04-21T21:25:36.631Z,101568.92
2019-04-21T21:27:54.308Z,101570.99
2019-04-21T21:30:31.282Z,101568.31
2019-04-21T21:33:05.561Z,101566.73
2019-04-21T21:35:31.135Z,101569.37
2019-04-21T21:38:08.369Z,101567.34
2019-04-21T21:40:36.223Z,101567.38
2019-04-21T21:42:53.380Z,101565.94
2019-04-21T21:45:26.934Z,101567.82
2019-04-21T21:48:17.550Z,101564.94
2019-04-21T21:50:38.556Z,101566.72
2019-04-21T21:53:07.612Z,101568.08
2019-04-21T21:55:32.800Z,101561.02
2019-04-21T21:58:03.611Z,101564.09
2019-04-21T22:00:36.963Z,101556.91
2019-04-21T22:03:17.348Z,101555.77
2019-04-21T22:05:45.575Z,101556.73
2019-04-21T22:08:12.233Z,101563.46
2019-04-21T22:10:43.306Z,101560.79
2019-04-21T22:13:17.748Z,101558.80
2019-04-21T22:15:48.301Z,101561.61
2019-04-21T22:18:34.894Z,101557.88
2019-04-21T22:21:03.521Z,101559.50
2019-04-21T22:23:29.533Z,101560.25
2019-04-21T22:25:51.422Z,101549.00
2019-04-21T22:28:22.127Z,101557.83
2019-04-21T22:30:53.646Z,101549.74
2019-04-21T22:33:23.512Z,101547.59
2019-04-21T22:36:02.235Z,101546.95
2019-04-21T22:38:40.949Z,101546.89
2019-04-21T22:41:10.019Z,101552.03
2019-04-21T22:43:36.676Z,101551.33
2019-04-21T22:46:01.178Z,101550.78
2019-04-21T22:48:30.924Z,101550.09
2019-04-21T22:51:00.730Z,101554.97
2019-04-21T22:53:39.537Z,101552.88
2019-04-21T22:56:10.908Z,101563.88
2019-04-21T22:58:37.347Z,101556.88
2019-04-21T23:01:07.015Z,101559.13
2019-04-21T23:03:40.178Z,101564.20
2019-04-21T23:06:16.183Z,101572.91
2019-04-21T23:08:45.318Z,101567.30
2019-04-21T23:11:14.140Z,101562.91
2019-04-21T23:13:45.019Z,101567.99
2019-04-21T23:16:22.804Z,101567.61
2019-04-21T23:19:09.041Z,101570.77
2019-04-21T23:21:41.368Z,101569.18
2019-04-21T23:24:08.449Z,101571.22
2019-04-21T23:26:39.420Z,101571.39
2019-04-21T23:29:13.997Z,101563.38
2019-04-21T23:31:47.601Z,101563.22
2019-04-21T23:34:00.064Z,101557.38
2019-04-21T23:36:33.405Z,101558.63
2019-04-21T23:39:07.026Z,101556.25
2019-04-21T23:41:42.325Z,101558.30
2019-04-21T23:44:11.369Z,101555.44
2019-04-21T23:46:39.162Z,101559.89
2019-04-21T23:49:22.872Z,101556.98
2019-04-21T23:51:50.056Z,101559.60
2019-04-21T23:54:13.325Z,101552.62
2019-04-21T23:56:46.238Z,101553.34
2019-04-21T23:59:16.505Z,101555.36
